Latest Coastal Weather Observations for Port Hedland

IDW60701

Issued at 5:22 pm WST Tuesday 7 July 2015 (issued every 10 minutes, with the page automatically refreshed every 10 minutes)

About coastal observations | Map of coastal stations | Coastal observations for WA | Marine services | Other Formats
Station Details ID: 004032 Name: PORT HEDLAND AIRPORT Lat: -20.37 Lon: 118.63 Height: 6.4 m
Data from the previous 72 hours. | See also: Recent months at Port Hedland
Date/Time
WST
Temp

°C
Wind Pressure Rain
since 9am
mm
Weather Cloud Vis
km
Sea
Height
m
Swell
Dir
 
Speed
knots
Gust
knots
hPa Trend Height
m
Period
s
Dir
07/05:00pm 24.8 WNW 6 7 1014.1 - 0.0 - - 10 - - - -
07/04:30pm 25.4 NNW 7 10 1013.8 - 0.0 - - 10 - - - -
07/04:00pm 26.0 NW 9 11 1013.8 - 0.0 - - 10 - - - -
07/03:30pm 27.3 NNW 9 12 1013.6 - 0.0 - - 10 - - - -
07/03:00pm 27.9 N 9 13 1013.6 F 0.0 Fine Clear 40 - - - -
07/02:00pm 28.0 N 9 11 1014.3 - 0.0 - - 10 - - - -
07/01:30pm 28.2 N 9 11 1014.6 - 0.0 - - 10 - - - -
07/01:00pm 27.9 NNE 8 11 1015.0 - 0.0 - - 10 - - - -
07/12:30pm 27.3 NNE 8 9 1015.4 - 0.0 - - 10 - - - -
07/12:00pm 26.8 NNE 10 12 1016.1 R 0.0 Fine Clear 40 - - - -
07/11:30am 26.9 NNE 9 11 1016.4 - 0.0 - - 10 - - - -
07/11:00am 26.9 NE 11 14 1016.6 - 0.0 - - 10 - - - -
07/10:00am 25.6 E 10 14 1017.2 - 0.0 - - 10 - - - -
07/09:30am 24.3 ESE 11 15 1017.1 - 0.0 - - 10 - - - -
07/07:30am 13.1 SSE 7 8 1016.1 - 0.0 - - 10 - - - -
07/07:00am 11.3 S 7 9 1016.0 - 0.0 - - 10 - - - -
07/06:30am 11.1 S 8 10 1015.8 - 0.0 - - 10 - - - -
07/06:00am 10.9 S 7 8 1015.6 F 0.0 Fine Clear 40 - - - -
07/05:30am 11.7 S 7 8 1015.5 - 0.0 - - 10 - - - -
07/05:00am 12.2 SSE 8 9 1015.3 - 0.0 - - 10 - - - -
07/04:30am 11.9 SSE 7 8 1015.2 - 0.0 - - 10 - - - -
07/04:00am 12.0 S 7 9 1015.3 - 0.0 - - 10 - - - -
07/03:30am 11.9 S 7 8 1015.2 - 0.0 - - 10 - - - -
07/03:00am 11.4 S 6 7 1015.4 - 0.0 - - 10 - - - -
07/02:30am 12.4 S 7 10 1015.7 - 0.0 - - 10 - - - -
07/02:00am 12.7 S 7 9 1015.6 - 0.0 - - 10 - - - -
07/01:30am 12.5 S 7 8 1015.8 - 0.0 - - 10 - - - -
07/01:00am 13.0 S 7 9 1015.9 - 0.0 - - 10 - - - -
07/12:30am 12.6 S 7 9 1016.0 - 0.0 - - 10 - - - -
07/12:00am 13.4 S 10 11 1016.0 - 0.0 - - 10 - - - -
 
Date/Time
WST
Temp

°C
Wind Pressure Rain
since 9am
mm
Weather Cloud Vis
km
Sea
Height
m
Swell
Dir
 
Speed
knots
Gust
knots
hPa Trend Height
m
Period
s
Dir
06/11:30pm 13.2 S 7 9 1016.1 - 0.0 - - 10 - - - -
06/11:00pm 14.3 S 7 9 1016.2 - 0.0 - - 10 - - - -
06/10:30pm 14.2 S 6 8 1016.4 - 0.0 - - 10 - - - -
06/10:00pm 14.5 S 6 7 1016.7 - 0.0 - - 10 - - - -
06/09:30pm 14.8 S 5 6 1016.8 - 0.0 - - 10 - - - -
06/09:00pm 15.4 SSW 5 6 1016.9 - 0.0 - - 10 - - - -
06/08:30pm 16.4 SSW 4 5 1016.7 - 0.0 - - 10 - - - -
06/08:00pm 16.6 WSW 4 5 1016.6 - 0.0 - - 10 - - - -
06/07:30pm 16.6 W 4 5 1016.5 - 0.0 - - 10 - - - -
06/07:00pm 18.2 CALM 0 0 1016.2 - 0.0 - - 10 - - - -
06/06:30pm 18.6 NNW 3 4 1015.9 - 0.0 - - 10 - - - -
06/06:00pm 19.5 NNW 4 5 1015.8 - 0.0 - - 10 - - - -
06/05:30pm 21.5 NNW 4 5 1015.4 - 0.0 - - 10 - - - -
06/05:00pm 23.3 N 6 9 1015.3 - 0.0 - - 10 - - - -
06/04:30pm 24.2 N 8 10 1015.3 - 0.0 - - 10 - - - -
06/04:00pm 24.3 N 11 13 1015.2 - 0.0 - - 10 - - - -
06/03:30pm 24.6 N 11 15 1015.2 - 0.0 - - 10 - - - -
06/03:00pm 25.3 N 12 15 1015.2 R 0.0 Fine Clear 40 - - - -
06/02:30pm 25.0 N 13 16 1015.2 - 0.0 - - 10 - - - -
06/02:00pm 25.2 N 14 17 1015.2 - 0.0 - - 10 - - - -
06/01:30pm 26.3 N 13 16 1015.4 - 0.0 - - 10 - - - -
06/01:00pm 28.2 E 12 18 1015.6 - 0.0 - - 10 - - - -
06/12:30pm 28.3 E 15 19 1016.0 - 0.0 - - 10 - - - -
06/12:00pm 27.8 E 14 19 1016.5 F 0.0 Fine Clear 35 - - - -
06/11:30am 27.6 E 13 22 1016.9 - 0.0 - - 10 - - - -
06/11:00am 27.1 ESE 15 21 1017.2 - 0.0 - - 10 - - - -
06/10:30am 26.3 ESE 14 20 1017.7 - 0.0 - - 10 - - - -
06/10:00am 25.8 ESE 14 19 1017.9 - 0.0 - - 10 - - - -
06/09:30am 24.0 ESE 15 19 1018.0 - 0.0 - - 10 - - - -
06/09:00am 23.0 ESE 11 15 1018.0 F 0.0 Fine Clear 40 - - - -
06/08:30am 20.8 ESE 10 13 1018.0 - 0.0 - - 10 - - - -
06/08:00am 17.9 SE 8 11 1017.8 - 0.0 - - 10 - - - -
06/07:30am 15.1 SE 8 10 1017.5 - 0.0 - - 10 - - - -
06/07:00am 13.3 SE 8 10 1017.2 - 0.0 - - 10 - - - -
06/06:30am 12.6 SE 8 10 1017.0 - 0.0 - - 10 - - - -
06/06:00am 12.0 SE 8 9 1016.8 F 0.0 Fine Clear 40 - - - -
06/05:30am 11.3 SSE 6 7 1016.5 - 0.0 - - 10 - - - -
06/05:00am 11.4 SSE 6 7 1016.5 - 0.0 - - 10 - - - -
06/04:30am 11.5 S 5 5 1016.4 - 0.0 - - 10 - - - -
06/04:00am 11.4 S 4 5 1016.3 - 0.0 - - 10 - - - -
06/03:30am 11.9 S 5 6 1016.3 - 0.0 - - 10 - - - -
06/03:00am 12.3 S 6 7 1016.5 - 0.0 - - 10 - - - -
06/02:30am 12.8 S 6 7 1016.6 - 0.0 - - 10 - - - -
06/02:00am 12.4 S 5 6 1016.7 - 0.0 - - 10 - - - -
06/01:30am 12.7 S 6 7 1016.9 - 0.0 - - 10 - - - -
06/01:00am 12.8 S 5 7 1017.2 - 0.0 - - 10 - - - -
06/12:30am 13.5 S 7 9 1017.4 - 0.0 - - 10 - - - -
06/12:00am 14.2 S 7 8 1017.5 - 0.0 - - 10 - - - -
 
Date/Time
WST
Temp

°C
Wind Pressure Rain
since 9am
mm
Weather Cloud Vis
km
Sea
Height
m
Swell
Dir
 
Speed
knots
Gust
knots
hPa Trend Height
m
Period
s
Dir
05/11:30pm 14.8 S 6 8 1017.4 - 0.0 - - 10 - - - -
05/11:00pm 14.2 S 6 7 1017.4 - 0.0 - - 10 - - - -
05/10:30pm 14.4 S 5 6 1017.4 - 0.0 - - 10 - - - -
05/10:00pm 14.9 SSW 6 6 1017.4 - 0.0 - - 10 - - - -
05/09:30pm 15.0 SSW 7 8 1017.4 - 0.0 - - 10 - - - -
05/09:00pm 14.9 SW 6 7 1017.3 - 0.0 - - 10 - - - -
05/08:30pm 16.4 WNW 4 5 1017.3 - 0.0 - - 10 - - - -
05/08:00pm 16.8 WNW 3 4 1017.4 - 0.0 - - 10 - - - -
05/07:30pm 17.5 WNW 4 4 1017.2 - 0.0 - - 10 - - - -
05/07:00pm 17.9 WNW 5 5 1016.9 - 0.0 - - 10 - - - -
05/06:30pm 18.4 NW 5 5 1016.8 - 0.0 - - 10 - - - -
05/06:00pm 19.5 NW 5 5 1016.7 - 0.0 - - 10 - - - -
05/05:30pm 21.6 NW 5 6 1016.6 - 0.0 - - 10 - - - -
05/05:00pm 23.4 N 8 9 1016.3 - 0.0 - - 10 - - - -
05/04:30pm 24.1 N 8 10 1016.2 - 0.0 - - 10 - - - -
05/04:00pm 25.2 N 8 10 1016.0 - 0.0 - - 10 - - - -
05/03:30pm 25.9 N 9 11 1016.0 - 0.0 - - 10 - - - -
05/03:00pm 25.9 N 9 11 1016.2 - 0.0 - - 10 - - - -
05/02:30pm 26.5 N 9 12 1016.5 - 0.0 - - 10 - - - -
05/02:00pm 26.7 NNE 10 12 1016.8 - 0.0 - - 10 - - - -
05/01:30pm 27.8 E 10 16 1016.8 - 0.0 - - 10 - - - -
05/01:00pm 27.4 ESE 11 22 1017.3 - 0.0 - - 10 - - - -
05/12:30pm 27.9 E 11 16 1017.9 - 0.0 - - 10 - - - -
05/12:00pm 27.7 ESE 13 21 1018.3 - 0.0 - - 10 - - - -
05/11:46am 27.5 E 15 25 1018.6 - 0.0 - - 10 - - - -
05/11:30am 27.5 E 13 17 1018.9 - 0.0 - - 10 - - - -
05/11:00am 27.1 ENE 13 17 1019.4 - 0.0 - - 10 - - - -
05/10:30am 26.5 E 12 17 1019.8 - 0.0 - - 10 - - - -
05/10:00am 25.8 E 12 16 1019.9 - 0.0 - - 10 - - - -
05/09:30am 24.0 ESE 12 16 1020.1 - 0.0 - - 10 - - - -
05/09:00am 23.1 ESE 13 15 1020.0 - 0.0 - - 10 - - - -
05/08:30am 21.6 ESE 9 14 1019.9 - 0.0 - - 10 - - - -
05/08:00am 19.0 SE 8 10 1019.5 - 0.0 - - 10 - - - -
05/07:30am 15.7 SE 8 11 1019.2 - 0.0 - - 10 - - - -
05/07:00am 14.4 SE 9 11 1019.0 - 0.0 - - 10 - - - -
05/06:30am 14.1 SE 8 10 1018.6 - 0.0 - - 10 - - - -
05/06:00am 13.2 SSE 8 10 1018.2 - 0.0 - - 10 - - - -
05/05:30am 13.2 SSE 8 9 1018.1 - 0.0 - - 10 - - - -
05/05:00am 13.1 SSE 8 9 1017.9 - 0.0 - - 10 - - - -
05/04:30am 15.2 SE 8 11 1017.7 - 0.0 - - 10 - - - -
05/04:00am 14.0 SSE 7 9 1017.7 - 0.0 - - 10 - - - -
05/03:30am 13.1 SSE 9 11 1017.8 - 0.0 - - 10 - - - -
05/03:00am 13.8 SSE 9 11 1017.7 - 0.0 - - 10 - - - -
05/02:30am 13.7 SSE 9 10 1017.7 - 0.0 - - 10 - - - -
05/02:00am 14.0 SSE 9 10 1017.8 - 0.0 - - 10 - - - -
05/01:30am 14.1 SSE 9 10 1017.9 - 0.0 - - 10 - - - -
05/01:00am 13.9 S 7 8 1018.1 - 0.0 - - 10 - - - -
05/12:30am 14.3 S 6 7 1017.9 - 0.0 - - 10 - - - -
05/12:00am 14.2 S 4 6 1017.9 - 0.0 - - 10 - - - -
 
Date/Time
WST
Temp

°C
Wind Pressure Rain
since 9am
mm
Weather Cloud Vis
km
Sea
Height
m
Swell
Dir
 
Speed
knots
Gust
knots
hPa Trend Height
m
Period
s
Dir
04/11:30pm 15.4 S 4 5 1018.0 - 0.0 - - 10 - - - -
04/11:00pm 15.3 SSE 3 4 1018.0 - 0.0 - - 10 - - - -
04/10:30pm 15.7 S 4 5 1018.2 - 0.0 - - 10 - - - -
04/10:00pm 16.1 SSW 4 5 1018.4 - 0.0 - - 10 - - - -
04/09:30pm 15.8 WSW 5 6 1018.2 - 0.0 - - 10 - - - -
04/09:00pm 17.1 SW 4 6 1018.1 - 0.0 - - 10 - - - -
04/08:30pm 17.2 WSW 4 5 1018.0 - 0.0 - - 10 - - - -
04/08:00pm 17.9 W 4 4 1017.7 - 0.0 - - 10 - - - -
04/07:30pm 17.9 W 4 5 1017.6 - 0.0 - - 10 - - - -
04/07:00pm 18.1 W 4 5 1017.3 - 0.0 - - 10 - - - -
04/06:30pm 19.3 NW 6 8 1017.1 - 0.0 - - 10 - - - -
04/06:00pm 19.5 NNW 6 7 1016.8 - 0.0 - - 10 - - - -
04/05:30pm 22.3 N 6 8 1016.6 - 0.0 - - 10 - - - -

Other Formats:

Comma delimited format used in spreadsheet applications
http://www.bom.gov.au/fwo/IDW60701/IDW60701.94312.axf

JavaScript Object Notation format (JSON) in row-major order
http://www.bom.gov.au/fwo/IDW60701/IDW60701.94312.json